createdAt,value
2022-10-06T00:00:27.954Z,10.90
2022-10-06T00:03:16.781Z,10.80
2022-10-06T00:05:45.253Z,10.80
2022-10-06T00:08:12.547Z,10.80
2022-10-06T00:10:40.444Z,10.80
2022-10-06T00:13:09.462Z,10.70
2022-10-06T00:15:36.671Z,10.70
2022-10-06T00:18:04.283Z,10.60
2022-10-06T00:20:31.913Z,10.60
2022-10-06T00:22:59.099Z,10.50
2022-10-06T00:25:28.370Z,10.50
2022-10-06T00:27:56.477Z,10.40
2022-10-06T00:30:27.697Z,10.40
2022-10-06T00:33:02.991Z,10.40
2022-10-06T00:35:34.274Z,10.30
2022-10-06T00:38:01.958Z,10.30
2022-10-06T00:40:30.977Z,10.30
2022-10-06T00:43:06.010Z,10.20
2022-10-06T00:45:48.903Z,10.20
2022-10-06T00:48:25.817Z,10.20
2022-10-06T00:50:56.794Z,10.10
2022-10-06T00:53:30.140Z,10.20
2022-10-06T00:55:57.439Z,10.10
2022-10-06T00:58:25.300Z,10.10
2022-10-06T01:00:56.272Z,10.00
2022-10-06T01:03:36.344Z,10.00
2022-10-06T01:06:09.967Z,10.00
2022-10-06T01:08:38.621Z,9.90
2022-10-06T01:11:13.184Z,9.90
2022-10-06T01:13:46.729Z,9.90
2022-10-06T01:16:24.446Z,9.90
2022-10-06T01:18:55.964Z,9.80
2022-10-06T01:21:38.971Z,9.80
2022-10-06T01:24:09.890Z,9.80
2022-10-06T01:26:43.872Z,9.70
2022-10-06T01:29:13.281Z,9.70
2022-10-06T01:31:40.882Z,9.70
2022-10-06T01:34:08.026Z,9.60
2022-10-06T01:36:35.355Z,9.60
2022-10-06T01:39:03.110Z,9.60
2022-10-06T01:41:33.200Z,9.50
2022-10-06T01:44:05.688Z,9.50
2022-10-06T01:46:33.383Z,9.50
2022-10-06T01:49:00.429Z,9.50
2022-10-06T01:51:30.112Z,9.50
2022-10-06T01:53:58.847Z,9.40
2022-10-06T01:56:26.000Z,9.40
2022-10-06T01:58:53.281Z,9.40
2022-10-06T02:01:21.328Z,9.30
2022-10-06T02:03:48.528Z,9.30
2022-10-06T02:06:15.728Z,9.30
2022-10-06T02:08:45.275Z,9.20
2022-10-06T02:11:13.162Z,9.30
2022-10-06T02:13:43.857Z,9.20
2022-10-06T02:16:14.029Z,9.20
2022-10-06T02:18:42.571Z,9.20
2022-10-06T02:21:16.585Z,9.10
2022-10-06T02:23:44.259Z,9.00
2022-10-06T02:26:13.282Z,9.00
2022-10-06T02:28:50.270Z,9.00
2022-10-06T02:51:10.125Z,8.80
2022-10-06T02:53:40.180Z,8.70
2022-10-06T02:56:16.383Z,8.70
2022-10-06T02:58:45.938Z,8.70
2022-10-06T03:01:27.903Z,8.70
2022-10-06T03:04:07.427Z,8.60
2022-10-06T03:06:35.023Z,8.60
2022-10-06T03:09:09.139Z,8.60
2022-10-06T03:11:42.888Z,8.60
2022-10-06T03:14:20.561Z,8.50
2022-10-06T03:16:51.773Z,8.50
2022-10-06T03:19:30.427Z,8.50
2022-10-06T03:21:58.869Z,8.40
2022-10-06T03:24:35.021Z,8.40
2022-10-06T03:27:03.347Z,8.40
2022-10-06T03:29:31.098Z,8.40
2022-10-06T03:31:58.917Z,8.40
2022-10-06T03:34:27.047Z,8.30
2022-10-06T03:36:55.473Z,8.30
2022-10-06T03:39:25.159Z,8.30
2022-10-06T03:41:53.021Z,8.30
2022-10-06T03:44:21.946Z,8.30
2022-10-06T03:46:49.340Z,8.30
2022-10-06T03:49:17.020Z,8.20
2022-10-06T03:51:44.184Z,8.20
2022-10-06T03:54:17.088Z,8.20
2022-10-06T03:56:47.748Z,8.20
2022-10-06T03:59:19.430Z,8.10
2022-10-06T04:01:48.955Z,8.10
2022-10-06T04:09:54.121Z,8.10
2022-10-06T04:12:21.618Z,8.10
2022-10-06T04:14:50.563Z,8.00
2022-10-06T04:17:19.049Z,8.00
2022-10-06T04:19:49.992Z,7.90
2022-10-06T04:22:20.977Z,7.90
2022-10-06T04:24:48.920Z,7.90
2022-10-06T04:27:28.217Z,7.90
2022-10-06T04:30:02.043Z,7.80
2022-10-06T04:32:34.484Z,7.80
2022-10-06T04:35:01.779Z,7.80
2022-10-06T04:37:56.937Z,7.80
2022-10-06T04:40:24.410Z,7.80
2022-10-06T04:42:52.285Z,7.80
2022-10-06T04:45:20.161Z,7.80
2022-10-06T04:47:50.010Z,7.80
2022-10-06T04:50:18.336Z,7.70
2022-10-06T04:53:04.704Z,7.70
2022-10-06T04:55:32.730Z,7.70
2022-10-06T04:57:59.982Z,7.70
2022-10-06T05:00:28.529Z,7.70
2022-10-06T05:02:57.245Z,7.70
2022-10-06T05:05:24.623Z,7.70
2022-10-06T05:07:53.774Z,7.60
2022-10-06T05:10:21.628Z,7.60
2022-10-06T05:12:49.197Z,7.60
2022-10-06T05:15:23.309Z,7.60
2022-10-06T05:18:01.012Z,7.60
2022-10-06T05:20:29.927Z,7.60
2022-10-06T05:22:57.643Z,7.50
2022-10-06T05:37:54.873Z,7.60
2022-10-06T05:40:51.463Z,7.60
2022-10-06T06:10:43.894Z,8.50
2022-10-06T07:15:57.734Z,12.80
2022-10-06T07:18:44.106Z,13.20
2022-10-06T07:21:42.502Z,13.40
2022-10-06T07:24:28.767Z,13.50
2022-10-06T07:26:56.687Z,13.80
2022-10-06T07:29:24.422Z,14.00
2022-10-06T07:31:51.699Z,14.20
2022-10-06T07:34:19.145Z,14.40
2022-10-06T07:36:48.642Z,14.60
2022-10-06T07:39:16.518Z,14.80
2022-10-06T07:41:43.902Z,15.00
2022-10-06T07:44:11.038Z,15.20
2022-10-06T07:46:38.725Z,15.50
2022-10-06T07:49:11.309Z,15.70
2022-10-06T07:51:39.650Z,15.80
2022-10-06T07:54:08.797Z,15.80
2022-10-06T07:56:53.391Z,15.90
2022-10-06T07:59:21.132Z,15.90
2022-10-06T08:01:50.999Z,16.00
2022-10-06T08:04:18.293Z,16.10
2022-10-06T08:06:47.547Z,16.20
2022-10-06T08:09:14.794Z,16.30
2022-10-06T08:11:43.842Z,16.40
2022-10-06T08:14:11.133Z,16.40
2022-10-06T08:16:38.998Z,16.60
2022-10-06T08:19:07.426Z,16.80
2022-10-06T08:21:34.904Z,17.10
2022-10-06T08:24:02.506Z,17.10
2022-10-06T08:26:31.162Z,17.20
2022-10-06T08:29:03.089Z,17.30
2022-10-06T08:31:32.484Z,17.40
2022-10-06T08:34:01.313Z,17.50
2022-10-06T08:36:31.774Z,17.70
2022-10-06T08:39:00.786Z,17.90
2022-10-06T08:41:46.612Z,18.10
2022-10-06T08:44:18.631Z,18.20
2022-10-06T08:47:13.771Z,18.30
2022-10-06T08:49:46.086Z,18.50
2022-10-06T08:52:46.271Z,18.80
2022-10-06T08:55:47.843Z,19.00
2022-10-06T08:58:39.187Z,19.20
2022-10-06T09:01:20.003Z,19.40
2022-10-06T09:03:51.947Z,19.60
2022-10-06T09:07:11.368Z,19.80
2022-10-06T09:10:26.469Z,19.90
2022-10-06T09:13:21.739Z,20.00
2022-10-06T09:16:18.899Z,20.20
2022-10-06T09:19:08.389Z,20.40
2022-10-06T09:21:51.534Z,20.60
2022-10-06T09:24:33.699Z,20.70
2022-10-06T09:27:33.688Z,20.80
2022-10-06T09:30:04.822Z,20.90
2022-10-06T09:32:34.729Z,21.00
2022-10-06T09:35:19.515Z,21.10
2022-10-06T09:38:08.675Z,21.30
2022-10-06T09:40:46.486Z,21.40
2022-10-06T09:43:29.204Z,21.60
2022-10-06T09:46:31.462Z,21.80
2022-10-06T09:49:24.723Z,21.80
2022-10-06T09:52:15.202Z,21.80
2022-10-06T09:54:44.510Z,21.80
2022-10-06T09:57:24.535Z,21.80
2022-10-06T09:59:52.795Z,21.90
2022-10-06T10:02:37.197Z,21.90
2022-10-06T10:05:18.349Z,22.00
2022-10-06T10:07:48.234Z,22.20
2022-10-06T10:10:24.644Z,22.30
2022-10-06T10:12:55.029Z,22.40
2022-10-06T10:15:22.147Z,22.50
2022-10-06T10:17:52.603Z,22.70
2022-10-06T10:20:30.059Z,22.70
2022-10-06T10:23:03.414Z,22.80
2022-10-06T10:26:04.257Z,22.90
2022-10-06T10:29:08.589Z,23.10
2022-10-06T10:31:59.473Z,23.20
2022-10-06T10:35:13.727Z,23.30
2022-10-06T10:37:51.430Z,23.40
2022-10-06T10:40:47.264Z,23.50
2022-10-06T10:43:48.119Z,23.50
2022-10-06T10:46:35.662Z,23.50
2022-10-06T10:49:19.602Z,23.50
2022-10-06T10:51:55.929Z,23.50
2022-10-06T10:54:42.573Z,23.60
2022-10-06T10:57:16.685Z,23.60
2022-10-06T11:00:08.845Z,23.70
2022-10-06T11:02:38.300Z,23.60
2022-10-06T11:05:25.394Z,23.60
2022-10-06T11:08:35.888Z,23.70
2022-10-06T11:11:13.626Z,23.70
2022-10-06T11:13:45.852Z,23.90
2022-10-06T11:16:37.037Z,23.90
2022-10-06T11:20:05.761Z,24.00
2022-10-06T11:22:44.923Z,24.20
2022-10-06T11:25:40.071Z,24.70
2022-10-06T11:28:24.006Z,24.80
2022-10-06T11:31:22.809Z,24.80
2022-10-06T11:33:54.963Z,24.80
2022-10-06T11:36:47.849Z,24.90
2022-10-06T11:39:49.865Z,25.00
2022-10-06T11:42:58.921Z,25.00
2022-10-06T11:46:06.319Z,25.20
2022-10-06T11:48:34.650Z,25.20
2022-10-06T11:51:25.185Z,25.30
2022-10-06T11:53:54.366Z,25.30
2022-10-06T11:56:21.657Z,25.30
2022-10-06T11:58:51.957Z,25.30
2022-10-06T12:01:45.122Z,25.50
2022-10-06T12:04:19.453Z,25.90
2022-10-06T12:06:56.896Z,26.30
2022-10-06T12:09:31.960Z,26.50
2022-10-06T12:12:08.287Z,26.30
2022-10-06T12:18:17.614Z,26.60
2022-10-06T12:21:17.542Z,26.50
2022-10-06T12:23:56.469Z,26.30
2022-10-06T12:26:41.282Z,26.10
2022-10-06T12:29:46.081Z,26.00
2022-10-06T12:32:46.498Z,25.90
2022-10-06T12:35:25.278Z,25.70
2022-10-06T12:38:00.486Z,25.50
2022-10-06T12:40:54.528Z,25.30
2022-10-06T12:43:22.553Z,25.10
2022-10-06T12:46:01.390Z,25.00
2022-10-06T12:49:04.757Z,24.90
2022-10-06T12:51:44.568Z,24.70
2022-10-06T12:54:20.806Z,24.60
2022-10-06T12:57:00.202Z,24.40
2022-10-06T12:59:35.234Z,24.30
2022-10-06T13:02:14.492Z,24.20
2022-10-06T13:05:10.041Z,24.10
2022-10-06T13:08:21.752Z,24.10
2022-10-06T13:10:49.283Z,24.10
2022-10-06T13:13:24.599Z,24.10
2022-10-06T13:16:00.723Z,24.20
2022-10-06T13:18:31.449Z,24.30
2022-10-06T13:21:00.771Z,24.30
2022-10-06T13:23:34.835Z,24.40
2022-10-06T13:26:07.497Z,24.50
2022-10-06T13:28:44.402Z,24.70
2022-10-06T13:31:15.069Z,24.70
2022-10-06T13:33:52.598Z,24.80
2022-10-06T13:36:20.378Z,25.10
2022-10-06T13:38:47.705Z,25.20
2022-10-06T13:41:30.750Z,25.40
2022-10-06T13:44:24.616Z,25.30
2022-10-06T13:46:58.309Z,25.20
2022-10-06T13:49:46.035Z,25.00
2022-10-06T13:52:30.072Z,24.80
2022-10-06T13:55:03.977Z,24.80
2022-10-06T13:57:48.717Z,24.80
2022-10-06T14:00:29.955Z,24.70
2022-10-06T14:03:10.850Z,24.60
2022-10-06T14:05:43.389Z,24.60
2022-10-06T14:08:10.363Z,24.60
2022-10-06T14:11:08.118Z,24.50
2022-10-06T14:13:49.947Z,24.40
2022-10-06T14:16:25.203Z,24.40
2022-10-06T14:18:56.511Z,24.40
2022-10-06T14:21:35.725Z,24.30
2022-10-06T14:24:17.995Z,24.30
2022-10-06T14:26:49.936Z,24.30
2022-10-06T14:29:19.278Z,24.20
2022-10-06T14:31:47.939Z,24.20
2022-10-06T14:34:21.004Z,24.10
2022-10-06T14:36:51.642Z,24.00
2022-10-06T14:39:19.846Z,24.00
2022-10-06T14:41:47.362Z,23.90
2022-10-06T14:44:15.966Z,23.80
2022-10-06T14:46:48.855Z,23.80
2022-10-06T14:49:16.923Z,23.60
2022-10-06T14:51:45.123Z,23.50
2022-10-06T14:54:13.803Z,23.50
2022-10-06T14:56:42.321Z,23.40
2022-10-06T14:59:16.604Z,23.30
2022-10-06T15:01:45.622Z,23.20
2022-10-06T15:04:16.133Z,23.20
2022-10-06T15:07:02.554Z,23.10
2022-10-06T15:09:31.453Z,23.00
2022-10-06T15:11:59.931Z,22.90
2022-10-06T15:14:29.776Z,22.90
2022-10-06T15:17:00.672Z,22.80
2022-10-06T15:19:31.573Z,22.70
2022-10-06T15:21:58.978Z,22.70
2022-10-06T15:24:26.486Z,22.60
2022-10-06T15:27:12.471Z,22.50
2022-10-06T15:29:39.795Z,22.40
2022-10-06T15:32:07.352Z,22.40
2022-10-06T15:34:37.660Z,22.40
2022-10-06T15:37:06.293Z,22.30
2022-10-06T15:39:37.410Z,22.20
2022-10-06T15:42:05.321Z,22.20
2022-10-06T15:44:34.531Z,22.10
2022-10-06T15:47:05.918Z,22.10
2022-10-06T15:49:39.223Z,22.00
2022-10-06T15:52:08.616Z,22.00
2022-10-06T15:54:40.605Z,21.90
2022-10-06T15:57:19.454Z,21.90
2022-10-06T15:59:48.272Z,21.80
2022-10-06T16:02:18.130Z,21.80
2022-10-06T16:05:17.696Z,21.80
2022-10-06T16:07:45.135Z,21.70
2022-10-06T16:10:13.419Z,21.60
2022-10-06T16:12:40.710Z,21.60
2022-10-06T16:15:08.626Z,21.60
2022-10-06T16:17:35.626Z,21.50
2022-10-06T16:20:06.070Z,21.50
2022-10-06T16:22:33.369Z,21.40
2022-10-06T16:25:00.712Z,21.40
2022-10-06T16:27:33.443Z,21.40
2022-10-06T16:30:02.376Z,21.30
2022-10-06T16:32:29.469Z,21.30
2022-10-06T16:34:57.460Z,21.20
2022-10-06T16:37:24.831Z,21.20
2022-10-06T16:39:52.788Z,21.10
2022-10-06T16:42:20.116Z,21.10
2022-10-06T16:44:47.259Z,21.10
2022-10-06T16:47:14.454Z,21.00
2022-10-06T16:49:41.667Z,21.00
2022-10-06T16:52:08.814Z,21.00
2022-10-06T16:54:35.810Z,20.90
2022-10-06T16:57:06.681Z,20.80
2022-10-06T16:59:33.969Z,20.80
2022-10-06T17:02:00.981Z,20.70
2022-10-06T17:04:28.562Z,20.60
2022-10-06T17:06:57.206Z,20.50
2022-10-06T17:09:29.648Z,20.50
2022-10-06T17:12:00.611Z,20.40
2022-10-06T17:14:34.532Z,20.40
2022-10-06T17:17:03.624Z,20.30
2022-10-06T17:20:38.394Z,20.30
2022-10-06T17:22:50.273Z,20.20
2022-10-06T17:25:22.335Z,20.20
2022-10-06T17:27:58.797Z,20.10
2022-10-06T17:30:49.561Z,20.10
2022-10-06T17:38:58.326Z,19.90
2022-10-06T17:41:33.047Z,19.80
2022-10-06T17:50:40.514Z,19.70
2022-10-06T17:53:11.440Z,19.60
2022-10-06T17:55:55.695Z,19.60
2022-10-06T17:58:30.339Z,19.60
2022-10-06T18:04:17.393Z,19.50
2022-10-06T18:07:07.457Z,19.40
2022-10-06T18:20:19.351Z,19.30
2022-10-06T18:22:48.493Z,19.20
2022-10-06T18:25:16.807Z,19.10
2022-10-06T18:27:46.892Z,19.10
2022-10-06T18:30:14.378Z,19.10
2022-10-06T18:38:29.118Z,19.00
2022-10-06T18:41:55.319Z,18.90
2022-10-06T18:54:16.665Z,18.80
2022-10-06T18:56:51.629Z,18.70
2022-10-06T18:59:23.283Z,18.70
2022-10-06T19:24:44.862Z,18.40
2022-10-06T19:27:24.894Z,18.40
2022-10-06T19:29:56.377Z,18.30
2022-10-06T19:32:28.571Z,18.30
2022-10-06T19:34:58.951Z,18.30
2022-10-06T19:37:30.388Z,18.20
2022-10-06T19:40:08.932Z,18.20
2022-10-06T19:42:49.594Z,18.20
2022-10-06T19:45:21.067Z,18.10
2022-10-06T19:56:35.674Z,18.00
2022-10-06T19:59:05.755Z,18.00
2022-10-06T20:01:34.105Z,17.90
2022-10-06T20:04:03.923Z,17.90
2022-10-06T20:06:32.097Z,17.90
2022-10-06T20:09:11.535Z,17.90
2022-10-06T20:11:42.545Z,17.80
2022-10-06T20:43:43.847Z,17.30
2022-10-06T20:56:52.407Z,17.30
2022-10-06T20:59:22.915Z,17.20
2022-10-06T21:01:51.874Z,17.20
2022-10-06T21:04:21.878Z,17.20
2022-10-06T21:06:49.492Z,17.20
2022-10-06T21:09:19.624Z,17.10
2022-10-06T21:11:49.120Z,17.10
2022-10-06T21:14:25.714Z,17.10
2022-10-06T21:21:51.657Z,17.10
2022-10-06T21:24:53.806Z,17.00
2022-10-06T21:38:47.538Z,16.90
2022-10-06T21:41:58.829Z,16.90
2022-10-06T21:44:26.601Z,16.90
2022-10-06T21:47:21.556Z,16.90
2022-10-06T22:14:21.487Z,16.60
2022-10-06T22:16:49.027Z,16.60
2022-10-06T22:19:18.024Z,16.60
2022-10-06T23:13:45.401Z,16.20
2022-10-06T23:23:46.613Z,15.90
2022-10-06T23:26:18.932Z,15.80
